nws-alerts: Checking more than four warning/county codes can delay the loading of your pages. You should use a cron job to get the data.

Nearby METAR Reports

 

KFCI - Richmond/Chester, Virginia, USA
Distance from station: ESE 7mi, 12km
Updated: Mon, 17-Jun-2019 8:56am EDT
Mostly cloudy
Mostly cloudy
 Wind from SW
Wind: SW 6 mph , 9 km/h
Temperature: 79°F , 26°C
Dew Point: 70°F , 21°C
Humidity: 74%
Barometer: 30.00 inHg , 1015.9 hPa
Clouds: Mostly cloudy
Visibility: 10 miles , 16 km
Cloud details: Mostly cloudy 8500 ft
2019/06/17 12:56 KFCI 171256Z AUTO 23005KT 10SM BKN085 26/21 A3000 RMK AO2 SLP166 T02610211
KPTB - Petersburg, Virginia, USA
Distance from station: SSE 19mi, 31km
Updated: Mon, 17-Jun-2019 8:55am EDT
Clear
Clear
 Wind from SW
Wind: SW 8 mph , 13 km/h
Temperature: 81°F , 27°C
Heat Index: 85°F , 29°C
Dew Point: 70°F , 21°C
Humidity: 70%
Barometer: 30.01 inHg , 1016.3 hPa
Clouds: Clear
Visibility: 10 miles , 16 km
2019/06/17 12:55 KPTB 171255Z AUTO 23007KT 10SM CLR 27/21 A3001 RMK AO2 T02670206
 
KRIC - Richmond, Virginia, USA
Distance from station: ENE 19mi, 31km
Updated: Mon, 17-Jun-2019 8:54am EDT
Mostly cloudy
Mostly cloudy
 Wind from SW
Wind: SW 7 mph , 11 km/h
Temperature: 81°F , 27°C
Heat Index: 85°F , 29°C
Dew Point: 70°F , 21°C
Humidity: 70%
Barometer: 29.99 inHg , 1015.6 hPa
Clouds: Mostly cloudy
Visibility: 10 miles , 16 km
Cloud details: Partly cloudy 8000 ft
Mostly cloudy 30000 ft
2019/06/17 12:54 KRIC 171254Z 22006KT 10SM SCT080 BKN300 27/21 A2999 RMK AO2 SLP158 T02720211 $
KOFP - Richmond/Hanover, Virginia, USA
Distance from station: NNE 22mi, 36km
Updated: Mon, 17-Jun-2019 8:54am EDT
Few Clouds
Few Clouds
 Wind from SW
Wind: SW 6 mph , 9 km/h
Temperature: 81°F , 27°C
Heat Index: 84°F , 29°C
Dew Point: 68°F , 20°C
Humidity: 66%
Barometer: 30.00 inHg , 1015.9 hPa
Clouds: Few Clouds
Visibility: 9 miles , 14 km
Cloud details: Few Clouds 7000 ft
Few Clouds 9000 ft
2019/06/17 12:54 KOFP 171254Z AUTO 23005KT 9SM FEW070 FEW090 27/20 A3000 RMK AO2 SLP156 T02720200
 
KW96 - Quinton, Virginia, USA
Distance from station: E 28mi, 46km
Updated: Mon, 17-Jun-2019 8:55am EDT
Clear
Clear
 Wind from SSW
Wind: SSW 5 mph , 7 km/h
Temperature: 79°F , 26°C
Dew Point: 70°F , 21°C
Humidity: 74%
Barometer: 29.99 inHg , 1015.6 hPa
Clouds: Clear
Visibility: 10 miles , 16 km
2019/06/17 12:55 KW96 171255Z AUTO 21004KT 10SM CLR 26/21 A2999 RMK AO1 T02590213
KBKT - Blackstone Army, Virginia, USA
Distance from station: SW 30mi, 48km
Updated: Mon, 17-Jun-2019 8:55am EDT
Clear
Clear
 Wind from WSW
Wind: WSW 9 mph , 15 km/h
Temperature: 79°F , 26°C
Dew Point: 70°F , 21°C
Humidity: 74%
Barometer: 30.01 inHg , 1016.3 hPa
Clouds: Clear
Visibility: 10 miles , 16 km
2019/06/17 12:55 KBKT 171255Z AUTO 24008KT 10SM CLR 26/21 A3001 RMK AO1 T02640211
 
KW81 - Crewe, Virginia, USA
Distance from station: SW 30mi, 49km
Updated: Mon, 17-Jun-2019 8:55am EDT
Clear
Clear
 Wind from calm
Wind: Calm
Temperature: 79°F , 26°C
Dew Point: 72°F , 22°C
Humidity: 79%
Barometer: 30.00 inHg , 1015.9 hPa
Clouds: Clear
Visibility: 10 miles , 16 km
2019/06/17 12:55 KW81 171255Z AUTO 00000KT 10SM CLR 26/22 A3000 RMK AO1 T02580219
K7W4 - Bumpass, Virginia, USA
Distance from station: N 38mi, 61km
Updated: Mon, 17-Jun-2019 8:55am EDT
Clear
Clear
 Wind from calm
Wind: Calm
Temperature: 77°F , 25°C
Dew Point: 72°F , 22°C
Humidity: 83%
Barometer: 29.99 inHg , 1015.6 hPa
Clouds: Clear
Visibility: 10 miles , 16 km
2019/06/17 12:55 K7W4 171255Z AUTO 00000KT 10SM CLR 25/22 A2999 RMK AO1 T02530222
 
KFVX - Farmville, Virginia, USA
Distance from station: W 43mi, 69km
Updated: Mon, 17-Jun-2019 8:55am EDT
Clear
Clear
 Wind from SSW
Wind: SSW 6 mph , 9 km/h
Temperature: 77°F , 25°C
Dew Point: 70°F , 21°C
Humidity: 79%
Barometer: 30.00 inHg , 1015.9 hPa
Clouds: Clear
Visibility: 10 miles , 16 km
2019/06/17 12:55 KFVX 171255Z AUTO 21005KT 10SM CLR 25/21 A3000 RMK AO2 T02500211
KW31 - Kenbridge, Virginia, USA
Distance from station: SW 43mi, 70km
Updated: Mon, 17-Jun-2019 8:55am EDT
Partly cloudy
Partly cloudy
 
Temperature: 77°F , 25°C
Dew Point: 70°F , 21°C
Humidity: 79%
Barometer: 30.02 inHg , 1016.6 hPa
Clouds: Partly cloudy
Visibility: 10 miles , 16 km
Cloud details: Partly cloudy 8500 ft
2019/06/17 12:55 KW31 171255Z AUTO 10SM SCT085 25/21 A3002 RMK AO1 T02540213
 
KLKU - Louisa, Virginia, USA
Distance from station: NNW 44mi, 72km
Updated: Mon, 17-Jun-2019 8:55am EDT
Clear
Clear
 Wind from W
Wind: W 5 mph , 7 km/h
Temperature: 77°F , 25°C
Dew Point: 72°F , 22°C
Humidity: 83%
Barometer: 30.04 inHg , 1017.3 hPa
Clouds: Clear
Visibility: 10 miles , 16 km
2019/06/17 12:55 KLKU 171255Z AUTO 28004KT 10SM CLR 25/22 A3004 RMK AO2 T02530215
KLVL - Lawrenceville, Virginia, USA
Distance from station: S 46mi, 75km
Updated: Mon, 17-Jun-2019 8:35am EDT
Clear
Clear
 Wind from SSW
Wind: SSW 8 mph , 13 km/h
Temperature: 77°F , 25°C
Dew Point: 70°F , 21°C
Humidity: 79%
Barometer: 30.02 inHg , 1016.6 hPa
Clouds: Clear
Visibility: 10 miles , 16 km
2019/06/17 12:35 KLVL 171235Z AUTO 20007KT 10SM CLR 25/21 A3002 RMK AO1 T02490208
 
KAKQ - Norfolk/Wakefld, Virginia, USA
Distance from station: SE 47mi, 75km
Updated: Mon, 17-Jun-2019 8:54am EDT
Clear
Clear
 Wind from SW
Wind: SW 8 mph , 13 km/h
Temperature: 81°F , 27°C
Heat Index: 85°F , 29°C
Dew Point: 70°F , 21°C
Humidity: 70%
Barometer: 30.01 inHg , 1016.3 hPa
Clouds: Clear
Visibility: 7 miles , 11 km
2019/06/17 12:54 KAKQ 171254Z AUTO 23007KT 7SM CLR 27/21 A3001 RMK AO2 SLP160 T02670211
KFYJ - West Point, Virginia, USA
Distance from station: E 48mi, 78km
Updated: Mon, 17-Jun-2019 8:35am EDT
Clear
Clear
 Wind from SSW
Wind: SSW 7 mph , 11 km/h
Temperature: 77°F , 25°C
Dew Point: 72°F , 22°C
Humidity: 83%
Barometer: 30.01 inHg , 1016.3 hPa
Clouds: Clear
Visibility: 10 miles , 16 km
2019/06/17 12:35 KFYJ 171235Z AUTO 21006KT 10SM CLR 25/22 A3001 RMK AO1 T02510215
 
KXSA - Tappahannock, Virginia, USA
Distance from station: NE 51mi, 82km
Updated: Mon, 17-Jun-2019 8:55am EDT
Clear
Clear
 Wind from calm
Wind: Calm
Temperature: 79°F , 26°C
Dew Point: 72°F , 22°C
Humidity: 79%
Barometer: 30.00 inHg , 1015.9 hPa
Clouds: Clear
Visibility: 10 miles , 16 km
2019/06/17 12:55 KXSA 171255Z AUTO 00000KT 10SM CLR 26/22 A3000 RMK AO2 T02620224
KEMV - Emporia, Virginia, USA
Distance from station: S 52mi, 84km
Updated: Mon, 17-Jun-2019 8:55am EDT
Clear
Clear
 Wind from S
Wind: S 8 mph , 13 km/h
Temperature: 79°F , 26°C
Dew Point: 72°F , 22°C
Humidity: 79%
Barometer: 30.03 inHg , 1016.9 hPa
Clouds: Clear
Visibility: 10 miles , 16 km
2019/06/17 12:55 KEMV 171255Z AUTO 19007KT 10SM CLR 26/22 A3003 RMK AO2 T02580217
 
KJGG - Williamsburg, Virginia, USA
Distance from station: ESE 53mi, 85km
Updated: Mon, 17-Jun-2019 8:55am EDT
Clear
Clear
 Wind from W
Wind: W 9 mph , 15 km/h
Temperature: 81°F , 27°C
Heat Index: 85°F , 29°C
Dew Point: 72°F , 22°C
Humidity: 74%
Barometer: 30.01 inHg , 1016.3 hPa
Clouds: Clear
Visibility: 10 miles , 16 km
2019/06/17 12:55 KJGG 171255Z AUTO 27008KT 10SM CLR 27/22 A3001 RMK AO1
KAVC - South Hill/Meckl, Virginia, USA
Distance from station: SSW 56mi, 90km
Updated: Mon, 17-Jun-2019 8:55am EDT
Clear
Clear
 Wind from SW
Wind: SW 8 mph , 13 km/h
Temperature: 79°F , 26°C
Dew Point: 73°F , 23°C
Humidity: 84%
Barometer: 30.09 inHg , 1019 hPa
Clouds: Clear
Visibility: 10 miles , 16 km
2019/06/17 12:55 KAVC 171255Z AUTO 22007KT 10SM CLR 26/23 A3009 RMK AO2 T02590226
 
KGVE - Gordonsville, Virginia, USA
Distance from station: NNW 58mi, 93km
Updated: Mon, 17-Jun-2019 8:35am EDT
Clear
Clear
 Wind from calm
Wind: Calm
Temperature: 77°F , 25°C
Dew Point: 73°F , 23°C
Humidity: 89%
Barometer: 29.98 inHg , 1015.2 hPa
Clouds: Clear
Visibility: 10 miles , 16 km
2019/06/17 12:35 KGVE 171235Z AUTO 00000KT 10SM CLR 25/23 A2998 RMK AO1 T02530227
KEZF - Fredericksb/Shan, Virginia, USA
Distance from station: N 59mi, 95km
Updated: Mon, 17-Jun-2019 8:55am EDT
Clear
Clear
 Wind from calm
Wind: Calm
Temperature: 79°F , 26°C
Dew Point: 72°F , 22°C
Humidity: 79%
Barometer: 29.97 inHg , 1014.9 hPa
Clouds: Clear
Visibility: 10 miles , 16 km
2019/06/17 12:55 KEZF 171255Z AUTO 00000KT 10SM CLR 26/22 A2997 RMK AO2 T02550222